sensor_id;sensor_type;location;lat;lon;timestamp;temperature;humidity
40964;DHT22;26693;51.168;4.138;2022-07-06T00:00:03;17.10;99.90
40964;DHT22;26693;51.168;4.138;2022-07-06T00:01:04;17.10;99.90
40964;DHT22;26693;51.168;4.138;2022-07-06T00:02:04;17.10;99.90
40964;DHT22;26693;51.168;4.138;2022-07-06T00:03:05;17.00;99.90
40964;DHT22;26693;51.168;4.138;2022-07-06T00:04:05;17.00;99.90
40964;DHT22;26693;51.168;4.138;2022-07-06T00:05:06;17.10;99.90
40964;DHT22;26693;51.168;4.138;2022-07-06T00:06:07;17.00;99.90
40964;DHT22;26693;51.168;4.138;2022-07-06T00:07:07;17.10;99.90
40964;DHT22;26693;51.168;4.138;2022-07-06T00:08:08;17.20;99.90
40964;DHT22;26693;51.168;4.138;2022-07-06T00:09:08;17.20;99.90
40964;DHT22;26693;51.168;4.138;2022-07-06T00:10:09;17.20;99.90
40964;DHT22;26693;51.168;4.138;2022-07-06T00:11:09;17.30;99.90
40964;DHT22;26693;51.168;4.138;2022-07-06T00:12:10;17.30;99.90
40964;DHT22;26693;51.168;4.138;2022-07-06T00:13:11;17.30;99.90
40964;DHT22;26693;51.168;4.138;2022-07-06T00:14:11;17.20;99.90
40964;DHT22;26693;51.168;4.138;2022-07-06T00:15:12;17.20;99.90
40964;DHT22;26693;51.168;4.138;2022-07-06T00:16:12;17.20;99.90
40964;DHT22;26693;51.168;4.138;2022-07-06T00:17:13;17.10;99.90
40964;DHT22;26693;51.168;4.138;2022-07-06T00:18:14;17.00;99.90
40964;DHT22;26693;51.168;4.138;2022-07-06T00:19:14;17.00;99.90
40964;DHT22;26693;51.168;4.138;2022-07-06T00:20:15;17.00;99.90
40964;DHT22;26693;51.168;4.138;2022-07-06T00:21:16;17.00;99.90
40964;DHT22;26693;51.168;4.138;2022-07-06T00:22:16;16.90;99.90
40964;DHT22;26693;51.168;4.138;2022-07-06T00:23:17;17.00;99.90
40964;DHT22;26693;51.168;4.138;2022-07-06T00:24:18;17.00;99.90
40964;DHT22;26693;51.168;4.138;2022-07-06T00:25:18;17.00;99.90
40964;DHT22;26693;51.168;4.138;2022-07-06T00:26:19;16.90;99.90
40964;DHT22;26693;51.168;4.138;2022-07-06T00:27:20;16.90;99.90
40964;DHT22;26693;51.168;4.138;2022-07-06T00:28:20;16.80;99.90
40964;DHT22;26693;51.168;4.138;2022-07-06T00:29:21;16.80;99.90
40964;DHT22;26693;51.168;4.138;2022-07-06T00:30:21;17.00;99.90
40964;DHT22;26693;51.168;4.138;2022-07-06T00:31:22;17.00;99.90
40964;DHT22;26693;51.168;4.138;2022-07-06T00:32:22;17.00;99.90
40964;DHT22;26693;51.168;4.138;2022-07-06T00:33:23;16.90;99.90
40964;DHT22;26693;51.168;4.138;2022-07-06T00:34:24;16.80;99.90
40964;DHT22;26693;51.168;4.138;2022-07-06T00:35:25;16.80;99.90
40964;DHT22;26693;51.168;4.138;2022-07-06T00:36:25;16.70;99.90
40964;DHT22;26693;51.168;4.138;2022-07-06T00:37:26;16.70;99.90
40964;DHT22;26693;51.168;4.138;2022-07-06T00:38:26;16.60;99.90
40964;DHT22;26693;51.168;4.138;2022-07-06T00:39:27;16.60;99.90
40964;DHT22;26693;51.168;4.138;2022-07-06T00:40:29;16.60;99.90
40964;DHT22;26693;51.168;4.138;2022-07-06T00:41:32;16.70;99.90
40964;DHT22;26693;51.168;4.138;2022-07-06T00:42:43;16.70;99.90
40964;DHT22;26693;51.168;4.138;2022-07-06T00:43:50;16.70;99.90
40964;DHT22;26693;51.168;4.138;2022-07-06T00:44:51;16.70;99.90
40964;DHT22;26693;51.168;4.138;2022-07-06T00:45:52;16.80;99.90
40964;DHT22;26693;51.168;4.138;2022-07-06T00:46:52;16.70;99.90
40964;DHT22;26693;51.168;4.138;2022-07-06T00:47:53;16.80;99.90
40964;DHT22;26693;51.168;4.138;2022-07-06T00:48:53;16.80;99.90
40964;DHT22;26693;51.168;4.138;2022-07-06T00:49:54;16.90;99.90
40964;DHT22;26693;51.168;4.138;2022-07-06T00:51:31;17.00;99.90
40964;DHT22;26693;51.168;4.138;2022-07-06T00:52:32;17.00;99.90
40964;DHT22;26693;51.168;4.138;2022-07-06T00:53:33;17.00;99.90
40964;DHT22;26693;51.168;4.138;2022-07-06T00:54:34;17.00;99.90
40964;DHT22;26693;51.168;4.138;2022-07-06T00:55:37;17.00;99.90
40964;DHT22;26693;51.168;4.138;2022-07-06T00:56:41;17.00;99.90
40964;DHT22;26693;51.168;4.138;2022-07-06T00:57:42;17.10;99.90
40964;DHT22;26693;51.168;4.138;2022-07-06T00:58:42;17.10;99.90
40964;DHT22;26693;51.168;4.138;2022-07-06T00:59:43;16.90;99.90
40964;DHT22;26693;51.168;4.138;2022-07-06T01:00:44;17.00;99.90
40964;DHT22;26693;51.168;4.138;2022-07-06T01:01:45;16.60;99.90
40964;DHT22;26693;51.168;4.138;2022-07-06T01:02:45;16.70;99.90
40964;DHT22;26693;51.168;4.138;2022-07-06T01:03:46;16.80;99.90
40964;DHT22;26693;51.168;4.138;2022-07-06T01:04:47;16.90;99.90
40964;DHT22;26693;51.168;4.138;2022-07-06T01:05:47;16.60;99.90
40964;DHT22;26693;51.168;4.138;2022-07-06T01:06:48;16.60;99.90
40964;DHT22;26693;51.168;4.138;2022-07-06T01:07:49;16.60;99.90
40964;DHT22;26693;51.168;4.138;2022-07-06T01:08:50;16.70;99.90
40964;DHT22;26693;51.168;4.138;2022-07-06T01:09:50;16.40;99.90
40964;DHT22;26693;51.168;4.138;2022-07-06T01:10:51;16.50;99.90
40964;DHT22;26693;51.168;4.138;2022-07-06T01:11:52;16.70;99.90
40964;DHT22;26693;51.168;4.138;2022-07-06T01:12:53;16.50;99.90
40964;DHT22;26693;51.168;4.138;2022-07-06T01:13:53;16.60;99.90
40964;DHT22;26693;51.168;4.138;2022-07-06T01:14:55;16.60;99.90
40964;DHT22;26693;51.168;4.138;2022-07-06T01:15:55;16.50;99.90
40964;DHT22;26693;51.168;4.138;2022-07-06T01:16:56;16.30;99.90
40964;DHT22;26693;51.168;4.138;2022-07-06T01:17:57;16.10;99.90
40964;DHT22;26693;51.168;4.138;2022-07-06T01:18:57;16.20;99.90
40964;DHT22;26693;51.168;4.138;2022-07-06T01:20:07;16.30;99.90
40964;DHT22;26693;51.168;4.138;2022-07-06T01:21:09;16.60;99.90
40964;DHT22;26693;51.168;4.138;2022-07-06T01:22:10;16.60;99.90
40964;DHT22;26693;51.168;4.138;2022-07-06T01:23:10;16.60;99.90
40964;DHT22;26693;51.168;4.138;2022-07-06T01:24:11;16.40;99.90
40964;DHT22;26693;51.168;4.138;2022-07-06T01:25:11;16.20;99.90
40964;DHT22;26693;51.168;4.138;2022-07-06T01:26:13;16.20;99.90
40964;DHT22;26693;51.168;4.138;2022-07-06T01:27:13;16.20;99.90
40964;DHT22;26693;51.168;4.138;2022-07-06T01:28:14;16.40;99.90
40964;DHT22;26693;51.168;4.138;2022-07-06T01:29:15;16.40;99.90
40964;DHT22;26693;51.168;4.138;2022-07-06T01:30:17;16.40;99.90
40964;DHT22;26693;51.168;4.138;2022-07-06T01:31:21;16.60;99.90
40964;DHT22;26693;51.168;4.138;2022-07-06T01:32:22;16.70;99.90
40964;DHT22;26693;51.168;4.138;2022-07-06T01:33:23;16.80;99.90
40964;DHT22;26693;51.168;4.138;2022-07-06T01:34:23;16.70;99.90
40964;DHT22;26693;51.168;4.138;2022-07-06T01:35:24;16.60;99.90
40964;DHT22;26693;51.168;4.138;2022-07-06T01:36:26;16.50;99.90
40964;DHT22;26693;51.168;4.138;2022-07-06T01:37:27;16.60;99.90
40964;DHT22;26693;51.168;4.138;2022-07-06T01:38:27;16.70;99.90
40964;DHT22;26693;51.168;4.138;2022-07-06T01:39:28;16.70;99.90
40964;DHT22;26693;51.168;4.138;2022-07-06T01:40:28;16.80;99.90
40964;DHT22;26693;51.168;4.138;2022-07-06T01:41:29;16.60;99.90
40964;DHT22;26693;51.168;4.138;2022-07-06T01:42:30;16.70;99.90
40964;DHT22;26693;51.168;4.138;2022-07-06T01:43:30;16.70;99.90
40964;DHT22;26693;51.168;4.138;2022-07-06T01:44:31;16.60;99.90
40964;DHT22;26693;51.168;4.138;2022-07-06T01:45:31;16.70;99.90
40964;DHT22;26693;51.168;4.138;2022-07-06T01:46:32;16.80;99.90
40964;DHT22;26693;51.168;4.138;2022-07-06T01:47:33;16.80;99.90
40964;DHT22;26693;51.168;4.138;2022-07-06T01:48:34;16.80;99.90
40964;DHT22;26693;51.168;4.138;2022-07-06T01:49:34;16.80;99.90
40964;DHT22;26693;51.168;4.138;2022-07-06T01:50:35;16.70;99.90
40964;DHT22;26693;51.168;4.138;2022-07-06T01:51:35;16.70;99.90
40964;DHT22;26693;51.168;4.138;2022-07-06T01:52:36;16.50;99.90
40964;DHT22;26693;51.168;4.138;2022-07-06T01:53:37;16.40;99.90
40964;DHT22;26693;51.168;4.138;2022-07-06T01:54:37;16.50;99.90
40964;DHT22;26693;51.168;4.138;2022-07-06T01:55:38;16.40;99.90
40964;DHT22;26693;51.168;4.138;2022-07-06T01:56:39;16.50;99.90
40964;DHT22;26693;51.168;4.138;2022-07-06T01:57:39;16.60;99.90
40964;DHT22;26693;51.168;4.138;2022-07-06T01:58:40;16.50;99.90
40964;DHT22;26693;51.168;4.138;2022-07-06T01:59:41;16.60;99.90
40964;DHT22;26693;51.168;4.138;2022-07-06T02:00:41;16.70;99.90
40964;DHT22;26693;51.168;4.138;2022-07-06T02:01:42;16.40;99.90
40964;DHT22;26693;51.168;4.138;2022-07-06T02:02:42;16.60;99.90
40964;DHT22;26693;51.168;4.138;2022-07-06T02:03:43;16.70;99.90
40964;DHT22;26693;51.168;4.138;2022-07-06T02:04:43;16.40;99.90
40964;DHT22;26693;51.168;4.138;2022-07-06T02:05:44;16.50;99.90
40964;DHT22;26693;51.168;4.138;2022-07-06T02:06:44;16.60;99.90
40964;DHT22;26693;51.168;4.138;2022-07-06T02:07:45;16.60;99.90
40964;DHT22;26693;51.168;4.138;2022-07-06T02:08:46;16.60;99.90
40964;DHT22;26693;51.168;4.138;2022-07-06T02:09:46;16.70;99.90
40964;DHT22;26693;51.168;4.138;2022-07-06T02:10:47;16.40;99.90
40964;DHT22;26693;51.168;4.138;2022-07-06T02:11:47;16.50;99.90
40964;DHT22;26693;51.168;4.138;2022-07-06T02:12:48;16.30;99.90
40964;DHT22;26693;51.168;4.138;2022-07-06T02:13:48;16.20;99.90
40964;DHT22;26693;51.168;4.138;2022-07-06T02:14:49;16.20;99.90
40964;DHT22;26693;51.168;4.138;2022-07-06T02:15:49;16.40;99.90
40964;DHT22;26693;51.168;4.138;2022-07-06T02:16:50;16.40;99.90
40964;DHT22;26693;51.168;4.138;2022-07-06T02:17:50;16.50;99.90
40964;DHT22;26693;51.168;4.138;2022-07-06T02:18:51;16.60;99.90
40964;DHT22;26693;51.168;4.138;2022-07-06T02:19:52;16.70;99.90
40964;DHT22;26693;51.168;4.138;2022-07-06T02:20:52;16.80;99.90
40964;DHT22;26693;51.168;4.138;2022-07-06T02:21:53;16.80;99.90
40964;DHT22;26693;51.168;4.138;2022-07-06T02:22:53;16.50;99.90
40964;DHT22;26693;51.168;4.138;2022-07-06T02:23:54;16.60;99.90
40964;DHT22;26693;51.168;4.138;2022-07-06T02:24:54;16.60;99.90
40964;DHT22;26693;51.168;4.138;2022-07-06T02:25:55;16.40;99.90
40964;DHT22;26693;51.168;4.138;2022-07-06T02:26:55;16.50;99.90
40964;DHT22;26693;51.168;4.138;2022-07-06T02:27:56;16.50;99.90
40964;DHT22;26693;51.168;4.138;2022-07-06T02:28:56;16.60;99.90
40964;DHT22;26693;51.168;4.138;2022-07-06T02:29:57;16.40;99.90
40964;DHT22;26693;51.168;4.138;2022-07-06T02:30:57;16.40;99.90
40964;DHT22;26693;51.168;4.138;2022-07-06T02:31:58;16.40;99.90
40964;DHT22;26693;51.168;4.138;2022-07-06T02:32:59;16.30;99.90
40964;DHT22;26693;51.168;4.138;2022-07-06T02:33:59;16.20;99.90
40964;DHT22;26693;51.168;4.138;2022-07-06T02:35:00;16.30;99.90
40964;DHT22;26693;51.168;4.138;2022-07-06T02:36:00;16.50;99.90
40964;DHT22;26693;51.168;4.138;2022-07-06T02:37:01;16.60;99.90
40964;DHT22;26693;51.168;4.138;2022-07-06T02:38:01;16.40;99.90
40964;DHT22;26693;51.168;4.138;2022-07-06T02:39:02;16.40;99.90
40964;DHT22;26693;51.168;4.138;2022-07-06T02:40:03;16.50;99.90
40964;DHT22;26693;51.168;4.138;2022-07-06T02:41:03;16.60;99.90
40964;DHT22;26693;51.168;4.138;2022-07-06T02:42:04;16.80;99.90
40964;DHT22;26693;51.168;4.138;2022-07-06T02:43:04;16.80;99.90
40964;DHT22;26693;51.168;4.138;2022-07-06T02:44:05;16.80;99.90
40964;DHT22;26693;51.168;4.138;2022-07-06T02:45:06;16.90;99.90
40964;DHT22;26693;51.168;4.138;2022-07-06T02:46:06;16.90;99.90
40964;DHT22;26693;51.168;4.138;2022-07-06T02:47:07;16.90;99.90
40964;DHT22;26693;51.168;4.138;2022-07-06T02:48:07;17.00;99.90
40964;DHT22;26693;51.168;4.138;2022-07-06T02:49:08;16.70;99.90
40964;DHT22;26693;51.168;4.138;2022-07-06T02:50:08;16.40;99.90
40964;DHT22;26693;51.168;4.138;2022-07-06T02:51:09;16.40;99.90
40964;DHT22;26693;51.168;4.138;2022-07-06T02:52:09;16.50;99.90
40964;DHT22;26693;51.168;4.138;2022-07-06T02:53:10;16.60;99.90
40964;DHT22;26693;51.168;4.138;2022-07-06T02:54:10;16.70;99.90
40964;DHT22;26693;51.168;4.138;2022-07-06T02:55:11;16.80;99.90
40964;DHT22;26693;51.168;4.138;2022-07-06T02:56:11;16.80;99.90
40964;DHT22;26693;51.168;4.138;2022-07-06T02:57:12;16.80;99.90
40964;DHT22;26693;51.168;4.138;2022-07-06T02:58:12;16.80;99.90
40964;DHT22;26693;51.168;4.138;2022-07-06T02:59:13;16.90;99.90
40964;DHT22;26693;51.168;4.138;2022-07-06T03:00:13;16.90;99.90
40964;DHT22;26693;51.168;4.138;2022-07-06T03:01:14;16.90;99.90
40964;DHT22;26693;51.168;4.138;2022-07-06T03:02:15;16.90;99.90
40964;DHT22;26693;51.168;4.138;2022-07-06T03:03:16;16.90;99.90
40964;DHT22;26693;51.168;4.138;2022-07-06T03:04:16;17.00;99.90
40964;DHT22;26693;51.168;4.138;2022-07-06T03:05:17;17.00;99.90
40964;DHT22;26693;51.168;4.138;2022-07-06T03:06:17;17.10;99.90
40964;DHT22;26693;51.168;4.138;2022-07-06T03:07:18;17.20;99.90
40964;DHT22;26693;51.168;4.138;2022-07-06T03:08:18;16.90;99.90
40964;DHT22;26693;51.168;4.138;2022-07-06T03:09:19;16.90;99.90
40964;DHT22;26693;51.168;4.138;2022-07-06T03:10:19;17.00;99.90
40964;DHT22;26693;51.168;4.138;2022-07-06T03:11:20;17.10;99.90
40964;DHT22;26693;51.168;4.138;2022-07-06T03:12:20;17.10;99.90
40964;DHT22;26693;51.168;4.138;2022-07-06T03:13:21;17.10;99.90
40964;DHT22;26693;51.168;4.138;2022-07-06T03:14:21;17.20;99.90
40964;DHT22;26693;51.168;4.138;2022-07-06T03:15:22;17.10;99.90
40964;DHT22;26693;51.168;4.138;2022-07-06T03:16:22;17.10;99.90
40964;DHT22;26693;51.168;4.138;2022-07-06T03:17:23;17.20;99.90
40964;DHT22;26693;51.168;4.138;2022-07-06T03:18:23;17.20;99.90
40964;DHT22;26693;51.168;4.138;2022-07-06T03:19:24;17.20;99.90
40964;DHT22;26693;51.168;4.138;2022-07-06T03:20:24;17.20;99.90
40964;DHT22;26693;51.168;4.138;2022-07-06T03:21:25;17.20;99.90
40964;DHT22;26693;51.168;4.138;2022-07-06T03:22:25;17.00;99.90
40964;DHT22;26693;51.168;4.138;2022-07-06T03:23:26;17.10;99.90
40964;DHT22;26693;51.168;4.138;2022-07-06T03:24:27;17.20;99.90
40964;DHT22;26693;51.168;4.138;2022-07-06T03:25:28;16.90;99.90
40964;DHT22;26693;51.168;4.138;2022-07-06T03:26:28;17.00;99.90
40964;DHT22;26693;51.168;4.138;2022-07-06T03:27:29;17.10;99.90
40964;DHT22;26693;51.168;4.138;2022-07-06T03:28:29;17.30;99.90
40964;DHT22;26693;51.168;4.138;2022-07-06T03:29:30;17.30;99.90
40964;DHT22;26693;51.168;4.138;2022-07-06T03:30:30;17.30;99.90
40964;DHT22;26693;51.168;4.138;2022-07-06T03:31:31;17.30;99.90
40964;DHT22;26693;51.168;4.138;2022-07-06T03:32:31;17.30;99.90
40964;DHT22;26693;51.168;4.138;2022-07-06T03:33:32;17.30;99.90
40964;DHT22;26693;51.168;4.138;2022-07-06T03:34:32;17.20;99.90
40964;DHT22;26693;51.168;4.138;2022-07-06T03:35:33;17.10;99.90
40964;DHT22;26693;51.168;4.138;2022-07-06T03:36:33;17.00;99.90
40964;DHT22;26693;51.168;4.138;2022-07-06T03:37:34;16.90;99.90
40964;DHT22;26693;51.168;4.138;2022-07-06T03:38:35;16.80;99.90
40964;DHT22;26693;51.168;4.138;2022-07-06T03:39:36;16.80;99.90
40964;DHT22;26693;51.168;4.138;2022-07-06T03:40:36;16.70;99.90
40964;DHT22;26693;51.168;4.138;2022-07-06T03:41:37;16.60;99.90
40964;DHT22;26693;51.168;4.138;2022-07-06T03:42:37;16.50;99.90
40964;DHT22;26693;51.168;4.138;2022-07-06T03:43:38;16.40;99.90
40964;DHT22;26693;51.168;4.138;2022-07-06T03:44:38;16.30;99.90
40964;DHT22;26693;51.168;4.138;2022-07-06T03:45:39;16.30;99.90
40964;DHT22;26693;51.168;4.138;2022-07-06T03:46:39;16.30;99.90
40964;DHT22;26693;51.168;4.138;2022-07-06T03:47:40;16.20;99.90
40964;DHT22;26693;51.168;4.138;2022-07-06T03:48:40;16.20;99.90
40964;DHT22;26693;51.168;4.138;2022-07-06T03:49:41;16.20;99.90
40964;DHT22;26693;51.168;4.138;2022-07-06T03:50:41;16.10;99.90
40964;DHT22;26693;51.168;4.138;2022-07-06T03:51:42;16.10;99.90
40964;DHT22;26693;51.168;4.138;2022-07-06T03:52:42;16.20;99.90
40964;DHT22;26693;51.168;4.138;2022-07-06T03:53:43;16.20;99.90
40964;DHT22;26693;51.168;4.138;2022-07-06T03:54:43;16.20;99.90
40964;DHT22;26693;51.168;4.138;2022-07-06T03:55:44;16.20;99.90
40964;DHT22;26693;51.168;4.138;2022-07-06T03:57:04;16.30;99.90
40964;DHT22;26693;51.168;4.138;2022-07-06T03:58:05;16.10;99.90
40964;DHT22;26693;51.168;4.138;2022-07-06T03:59:05;16.10;99.90
40964;DHT22;26693;51.168;4.138;2022-07-06T04:00:06;16.20;99.90
40964;DHT22;26693;51.168;4.138;2022-07-06T04:01:07;16.10;99.90
40964;DHT22;26693;51.168;4.138;2022-07-06T04:02:07;15.90;99.90
40964;DHT22;26693;51.168;4.138;2022-07-06T04:03:08;15.90;99.90
40964;DHT22;26693;51.168;4.138;2022-07-06T04:04:08;15.70;99.90
40964;DHT22;26693;51.168;4.138;2022-07-06T04:05:09;15.70;99.90
40964;DHT22;26693;51.168;4.138;2022-07-06T04:06:09;15.60;99.90
40964;DHT22;26693;51.168;4.138;2022-07-06T04:07:10;15.60;99.90
40964;DHT22;26693;51.168;4.138;2022-07-06T04:08:10;15.60;99.90
40964;DHT22;26693;51.168;4.138;2022-07-06T04:09:11;15.60;99.90
40964;DHT22;26693;51.168;4.138;2022-07-06T04:10:11;15.80;99.90
40964;DHT22;26693;51.168;4.138;2022-07-06T04:11:12;15.70;99.90
40964;DHT22;26693;51.168;4.138;2022-07-06T04:12:12;15.70;99.90
40964;DHT22;26693;51.168;4.138;2022-07-06T04:13:13;15.80;99.90
40964;DHT22;26693;51.168;4.138;2022-07-06T04:14:14;15.90;99.90
40964;DHT22;26693;51.168;4.138;2022-07-06T04:15:14;15.90;99.90
40964;DHT22;26693;51.168;4.138;2022-07-06T04:16:15;15.90;99.90
40964;DHT22;26693;51.168;4.138;2022-07-06T04:17:15;16.00;99.90
40964;DHT22;26693;51.168;4.138;2022-07-06T04:18:42;15.90;99.90
40964;DHT22;26693;51.168;4.138;2022-07-06T04:19:42;15.90;99.90
40964;DHT22;26693;51.168;4.138;2022-07-06T04:20:43;16.00;99.90
40964;DHT22;26693;51.168;4.138;2022-07-06T04:21:43;15.80;99.90
40964;DHT22;26693;51.168;4.138;2022-07-06T04:22:44;15.90;99.90
40964;DHT22;26693;51.168;4.138;2022-07-06T04:23:44;15.90;99.90
40964;DHT22;26693;51.168;4.138;2022-07-06T04:24:45;15.60;99.90
40964;DHT22;26693;51.168;4.138;2022-07-06T04:25:45;15.90;99.90
40964;DHT22;26693;51.168;4.138;2022-07-06T04:26:46;15.90;99.90
40964;DHT22;26693;51.168;4.138;2022-07-06T04:27:46;15.80;99.90
40964;DHT22;26693;51.168;4.138;2022-07-06T04:28:47;15.80;99.90
40964;DHT22;26693;51.168;4.138;2022-07-06T04:29:47;15.70;99.90
40964;DHT22;26693;51.168;4.138;2022-07-06T04:30:48;15.80;99.90
40964;DHT22;26693;51.168;4.138;2022-07-06T04:31:49;15.80;99.90
40964;DHT22;26693;51.168;4.138;2022-07-06T04:32:49;15.80;99.90
40964;DHT22;26693;51.168;4.138;2022-07-06T04:33:50;15.80;99.90
40964;DHT22;26693;51.168;4.138;2022-07-06T04:34:50;15.90;99.90
40964;DHT22;26693;51.168;4.138;2022-07-06T04:35:51;16.10;99.90
40964;DHT22;26693;51.168;4.138;2022-07-06T04:36:51;16.20;99.90
40964;DHT22;26693;51.168;4.138;2022-07-06T04:37:52;16.30;99.90
40964;DHT22;26693;51.168;4.138;2022-07-06T04:38:52;16.50;99.90
40964;DHT22;26693;51.168;4.138;2022-07-06T04:39:53;16.50;99.90
40964;DHT22;26693;51.168;4.138;2022-07-06T04:40:53;16.60;99.90
40964;DHT22;26693;51.168;4.138;2022-07-06T04:41:54;16.50;99.90
40964;DHT22;26693;51.168;4.138;2022-07-06T04:42:57;16.30;99.90
40964;DHT22;26693;51.168;4.138;2022-07-06T04:43:58;16.30;99.90
40964;DHT22;26693;51.168;4.138;2022-07-06T04:44:58;16.50;99.90
40964;DHT22;26693;51.168;4.138;2022-07-06T04:45:59;16.40;99.90
40964;DHT22;26693;51.168;4.138;2022-07-06T04:47:01;16.30;99.90
40964;DHT22;26693;51.168;4.138;2022-07-06T04:48:01;16.40;99.90
40964;DHT22;26693;51.168;4.138;2022-07-06T04:49:02;16.60;99.90
40964;DHT22;26693;51.168;4.138;2022-07-06T04:50:03;16.60;99.90
40964;DHT22;26693;51.168;4.138;2022-07-06T04:51:03;16.70;99.90
40964;DHT22;26693;51.168;4.138;2022-07-06T04:52:04;16.80;99.90
40964;DHT22;26693;51.168;4.138;2022-07-06T04:53:05;16.80;99.90
40964;DHT22;26693;51.168;4.138;2022-07-06T04:54:05;16.80;99.90
40964;DHT22;26693;51.168;4.138;2022-07-06T04:55:06;16.80;99.90
40964;DHT22;26693;51.168;4.138;2022-07-06T04:56:08;16.80;99.90
40964;DHT22;26693;51.168;4.138;2022-07-06T04:57:09;16.80;99.90
40964;DHT22;26693;51.168;4.138;2022-07-06T04:58:09;16.90;99.90
40964;DHT22;26693;51.168;4.138;2022-07-06T04:59:10;17.00;99.90
40964;DHT22;26693;51.168;4.138;2022-07-06T05:00:11;17.00;99.90
40964;DHT22;26693;51.168;4.138;2022-07-06T05:01:11;16.90;99.90
40964;DHT22;26693;51.168;4.138;2022-07-06T05:02:12;16.90;99.90
40964;DHT22;26693;51.168;4.138;2022-07-06T05:03:12;16.90;99.90
40964;DHT22;26693;51.168;4.138;2022-07-06T05:04:13;16.90;99.90
40964;DHT22;26693;51.168;4.138;2022-07-06T05:05:13;16.90;99.90
40964;DHT22;26693;51.168;4.138;2022-07-06T05:06:14;17.00;99.90
40964;DHT22;26693;51.168;4.138;2022-07-06T05:07:16;16.90;99.90
40964;DHT22;26693;51.168;4.138;2022-07-06T05:08:17;17.00;99.90
40964;DHT22;26693;51.168;4.138;2022-07-06T05:09:17;17.00;99.90
40964;DHT22;26693;51.168;4.138;2022-07-06T05:10:18;17.00;99.90
40964;DHT22;26693;51.168;4.138;2022-07-06T05:11:18;17.00;99.90
40964;DHT22;26693;51.168;4.138;2022-07-06T05:12:19;16.80;99.90
40964;DHT22;26693;51.168;4.138;2022-07-06T05:13:19;16.60;99.90
40964;DHT22;26693;51.168;4.138;2022-07-06T05:14:20;16.60;99.90
40964;DHT22;26693;51.168;4.138;2022-07-06T05:15:20;16.50;99.90
40964;DHT22;26693;51.168;4.138;2022-07-06T05:16:21;16.50;99.90
40964;DHT22;26693;51.168;4.138;2022-07-06T05:17:21;16.50;99.90
40964;DHT22;26693;51.168;4.138;2022-07-06T05:18:22;16.40;99.90
40964;DHT22;26693;51.168;4.138;2022-07-06T05:19:22;16.40;99.90
40964;DHT22;26693;51.168;4.138;2022-07-06T05:20:23;16.30;99.90
40964;DHT22;26693;51.168;4.138;2022-07-06T05:21:23;16.20;99.90
40964;DHT22;26693;51.168;4.138;2022-07-06T05:22:24;16.30;99.90
40964;DHT22;26693;51.168;4.138;2022-07-06T05:23:25;16.30;99.90
40964;DHT22;26693;51.168;4.138;2022-07-06T05:24:26;16.30;99.90
40964;DHT22;26693;51.168;4.138;2022-07-06T05:25:26;16.30;99.90
40964;DHT22;26693;51.168;4.138;2022-07-06T05:26:27;16.30;99.90
40964;DHT22;26693;51.168;4.138;2022-07-06T05:27:27;16.40;99.90
40964;DHT22;26693;51.168;4.138;2022-07-06T05:28:28;16.40;99.90
40964;DHT22;26693;51.168;4.138;2022-07-06T05:29:29;16.40;99.90
40964;DHT22;26693;51.168;4.138;2022-07-06T05:30:29;16.40;99.90
40964;DHT22;26693;51.168;4.138;2022-07-06T05:31:30;16.40;99.90
40964;DHT22;26693;51.168;4.138;2022-07-06T05:32:30;16.40;99.90
40964;DHT22;26693;51.168;4.138;2022-07-06T05:33:31;16.50;99.90
40964;DHT22;26693;51.168;4.138;2022-07-06T05:34:31;16.50;99.90
40964;DHT22;26693;51.168;4.138;2022-07-06T05:35:32;16.50;99.90
40964;DHT22;26693;51.168;4.138;2022-07-06T05:36:32;16.50;99.90
40964;DHT22;26693;51.168;4.138;2022-07-06T05:37:33;16.50;99.90
40964;DHT22;26693;51.168;4.138;2022-07-06T05:38:33;16.60;99.90
40964;DHT22;26693;51.168;4.138;2022-07-06T05:39:34;16.70;99.90
40964;DHT22;26693;51.168;4.138;2022-07-06T05:40:34;16.60;99.90
40964;DHT22;26693;51.168;4.138;2022-07-06T05:41:35;16.60;99.90
40964;DHT22;26693;51.168;4.138;2022-07-06T05:42:35;16.60;99.90
40964;DHT22;26693;51.168;4.138;2022-07-06T05:43:36;16.70;99.90
40964;DHT22;26693;51.168;4.138;2022-07-06T05:44:37;16.70;99.90
40964;DHT22;26693;51.168;4.138;2022-07-06T05:45:37;16.70;99.90
40964;DHT22;26693;51.168;4.138;2022-07-06T05:46:38;16.70;99.90
40964;DHT22;26693;51.168;4.138;2022-07-06T05:47:38;16.70;99.90
40964;DHT22;26693;51.168;4.138;2022-07-06T05:48:57;16.70;99.90
40964;DHT22;26693;51.168;4.138;2022-07-06T05:50:17;16.70;99.90
40964;DHT22;26693;51.168;4.138;2022-07-06T05:51:17;16.70;99.90
40964;DHT22;26693;51.168;4.138;2022-07-06T05:52:18;16.70;99.90
40964;DHT22;26693;51.168;4.138;2022-07-06T05:53:18;16.70;99.90
40964;DHT22;26693;51.168;4.138;2022-07-06T05:54:19;16.80;99.90
40964;DHT22;26693;51.168;4.138;2022-07-06T05:55:19;16.90;99.90
40964;DHT22;26693;51.168;4.138;2022-07-06T05:56:20;16.90;99.90
40964;DHT22;26693;51.168;4.138;2022-07-06T05:57:20;16.90;99.90
40964;DHT22;26693;51.168;4.138;2022-07-06T05:58:21;17.00;99.90
40964;DHT22;26693;51.168;4.138;2022-07-06T05:59:22;16.90;99.90
40964;DHT22;26693;51.168;4.138;2022-07-06T06:00:22;17.00;99.90
40964;DHT22;26693;51.168;4.138;2022-07-06T06:01:23;17.00;99.90
40964;DHT22;26693;51.168;4.138;2022-07-06T06:02:23;17.00;99.90
40964;DHT22;26693;51.168;4.138;2022-07-06T06:03:24;17.00;99.90
40964;DHT22;26693;51.168;4.138;2022-07-06T06:04:25;17.10;99.90
40964;DHT22;26693;51.168;4.138;2022-07-06T06:05:25;17.10;99.90
40964;DHT22;26693;51.168;4.138;2022-07-06T06:06:26;17.10;99.90
40964;DHT22;26693;51.168;4.138;2022-07-06T06:07:27;17.10;99.90
40964;DHT22;26693;51.168;4.138;2022-07-06T06:08:27;17.10;99.90
40964;DHT22;26693;51.168;4.138;2022-07-06T06:09:28;17.10;99.90
40964;DHT22;26693;51.168;4.138;2022-07-06T06:10:29;17.00;99.90
40964;DHT22;26693;51.168;4.138;2022-07-06T06:11:29;17.00;99.90
40964;DHT22;26693;51.168;4.138;2022-07-06T06:12:30;17.10;99.90
40964;DHT22;26693;51.168;4.138;2022-07-06T06:13:30;17.10;99.90
40964;DHT22;26693;51.168;4.138;2022-07-06T06:14:31;17.20;99.90
40964;DHT22;26693;51.168;4.138;2022-07-06T06:15:31;17.30;99.90
40964;DHT22;26693;51.168;4.138;2022-07-06T06:16:32;17.30;99.90
40964;DHT22;26693;51.168;4.138;2022-07-06T06:17:33;17.30;99.90
40964;DHT22;26693;51.168;4.138;2022-07-06T06:18:33;17.40;99.90
40964;DHT22;26693;51.168;4.138;2022-07-06T06:19:34;17.40;99.90
40964;DHT22;26693;51.168;4.138;2022-07-06T06:20:36;17.40;99.90
40964;DHT22;26693;51.168;4.138;2022-07-06T06:21:37;17.40;99.90
40964;DHT22;26693;51.168;4.138;2022-07-06T06:22:47;17.50;99.90
40964;DHT22;26693;51.168;4.138;2022-07-06T06:23:48;17.50;99.90
40964;DHT22;26693;51.168;4.138;2022-07-06T06:24:48;17.40;99.90